sensor_id;sensor_type;location;lat;lon;timestamp;temperature;humidity
71436;SHT31;59251;51.326;12.370;2023-03-14T00:01:49;10.99;94.31
71436;SHT31;59251;51.326;12.370;2023-03-14T00:04:15;11.00;94.19
71436;SHT31;59251;51.326;12.370;2023-03-14T00:06:40;11.10;93.75
71436;SHT31;59251;51.326;12.370;2023-03-14T00:09:06;11.00;94.11
71436;SHT31;59251;51.326;12.370;2023-03-14T00:11:32;11.07;94.21
71436;SHT31;59251;51.326;12.370;2023-03-14T00:13:57;10.93;94.52
71436;SHT31;59251;51.326;12.370;2023-03-14T00:16:24;10.93;94.67
71436;SHT31;59251;51.326;12.370;2023-03-14T00:18:50;10.92;94.78
71436;SHT31;59251;51.326;12.370;2023-03-14T00:21:15;10.84;94.84
71436;SHT31;59251;51.326;12.370;2023-03-14T00:23:41;10.86;94.67
71436;SHT31;59251;51.326;12.370;2023-03-14T00:26:12;10.82;94.84
71436;SHT31;59251;51.326;12.370;2023-03-14T00:28:38;10.82;94.83
71436;SHT31;59251;51.326;12.370;2023-03-14T00:31:08;10.90;94.45
71436;SHT31;59251;51.326;12.370;2023-03-14T00:33:34;10.82;94.84
71436;SHT31;59251;51.326;12.370;2023-03-14T00:36:05;10.82;94.90
71436;SHT31;59251;51.326;12.370;2023-03-14T00:38:32;10.80;94.99
71436;SHT31;59251;51.326;12.370;2023-03-14T00:40:58;10.75;95.29
71436;SHT31;59251;51.326;12.370;2023-03-14T00:43:24;10.73;95.19
71436;SHT31;59251;51.326;12.370;2023-03-14T00:45:50;10.79;94.96
71436;SHT31;59251;51.326;12.370;2023-03-14T00:48:16;10.82;94.70
71436;SHT31;59251;51.326;12.370;2023-03-14T00:50:42;10.76;94.87
71436;SHT31;59251;51.326;12.370;2023-03-14T00:53:07;10.79;94.73
71436;SHT31;59251;51.326;12.370;2023-03-14T00:55:36;10.80;94.32
71436;SHT31;59251;51.326;12.370;2023-03-14T00:58:02;10.88;93.99
71436;SHT31;59251;51.326;12.370;2023-03-14T01:00:27;10.89;93.84
71436;SHT31;59251;51.326;12.370;2023-03-14T01:02:52;10.90;93.52
71436;SHT31;59251;51.326;12.370;2023-03-14T01:05:18;10.95;93.37
71436;SHT31;59251;51.326;12.370;2023-03-14T01:07:43;10.90;93.26
71436;SHT31;59251;51.326;12.370;2023-03-14T01:10:10;10.90;93.23
71436;SHT31;59251;51.326;12.370;2023-03-14T01:12:35;10.96;92.66
71436;SHT31;59251;51.326;12.370;2023-03-14T01:15:00;10.97;92.25
71436;SHT31;59251;51.326;12.370;2023-03-14T01:17:26;10.99;92.36
71436;SHT31;59251;51.326;12.370;2023-03-14T01:19:51;10.88;92.67
71436;SHT31;59251;51.326;12.370;2023-03-14T01:22:16;10.83;92.66
71436;SHT31;59251;51.326;12.370;2023-03-14T01:24:42;11.03;91.52
71436;SHT31;59251;51.326;12.370;2023-03-14T01:27:07;10.97;91.49
71436;SHT31;59251;51.326;12.370;2023-03-14T01:29:33;10.99;91.45
71436;SHT31;59251;51.326;12.370;2023-03-14T01:31:58;11.06;90.99
71436;SHT31;59251;51.326;12.370;2023-03-14T01:34:23;11.07;90.67
71436;SHT31;59251;51.326;12.370;2023-03-14T01:36:49;11.11;90.33
71436;SHT31;59251;51.326;12.370;2023-03-14T01:39:14;11.14;90.17
71436;SHT31;59251;51.326;12.370;2023-03-14T01:41:40;11.18;90.19
71436;SHT31;59251;51.326;12.370;2023-03-14T01:44:08;11.09;90.33
71436;SHT31;59251;51.326;12.370;2023-03-14T01:49:22;11.04;90.48
71436;SHT31;59251;51.326;12.370;2023-03-14T01:55:19;10.99;90.42
71436;SHT31;59251;51.326;12.370;2023-03-14T01:57:48;11.01;90.28
71436;SHT31;59251;51.326;12.370;2023-03-14T02:00:17;11.10;89.64
71436;SHT31;59251;51.326;12.370;2023-03-14T02:02:45;11.07;89.77
71436;SHT31;59251;51.326;12.370;2023-03-14T02:05:14;11.04;90.16
71436;SHT31;59251;51.326;12.370;2023-03-14T02:07:53;10.92;90.38
71436;SHT31;59251;51.326;12.370;2023-03-14T02:10:22;11.07;89.58
71436;SHT31;59251;51.326;12.370;2023-03-14T02:12:49;10.93;90.07
71436;SHT31;59251;51.326;12.370;2023-03-14T02:15:14;10.95;89.71
71436;SHT31;59251;51.326;12.370;2023-03-14T02:17:44;10.89;89.99
71436;SHT31;59251;51.326;12.370;2023-03-14T02:20:22;10.93;89.54
71436;SHT31;59251;51.326;12.370;2023-03-14T02:22:51;11.03;89.13
71436;SHT31;59251;51.326;12.370;2023-03-14T02:27:55;10.96;89.09
71436;SHT31;59251;51.326;12.370;2023-03-14T02:30:23;10.97;88.87
71436;SHT31;59251;51.326;12.370;2023-03-14T02:33:03;11.07;88.00
71436;SHT31;59251;51.326;12.370;2023-03-14T02:35:33;10.97;88.57
71436;SHT31;59251;51.326;12.370;2023-03-14T02:38:06;10.93;88.80
71436;SHT31;59251;51.326;12.370;2023-03-14T02:40:34;10.97;88.42
71436;SHT31;59251;51.326;12.370;2023-03-14T02:43:00;11.03;88.01
71436;SHT31;59251;51.326;12.370;2023-03-14T02:45:39;10.99;88.08
71436;SHT31;59251;51.326;12.370;2023-03-14T02:48:08;10.97;88.19
71436;SHT31;59251;51.326;12.370;2023-03-14T02:50:35;10.97;87.87
71436;SHT31;59251;51.326;12.370;2023-03-14T02:53:00;10.95;88.19
71436;SHT31;59251;51.326;12.370;2023-03-14T02:55:26;10.95;87.92
71436;SHT31;59251;51.326;12.370;2023-03-14T02:57:52;10.84;88.29
71436;SHT31;59251;51.326;12.370;2023-03-14T03:00:18;10.76;88.87
71436;SHT31;59251;51.326;12.370;2023-03-14T03:02:45;10.89;88.27
71436;SHT31;59251;51.326;12.370;2023-03-14T03:05:10;10.95;87.66
71436;SHT31;59251;51.326;12.370;2023-03-14T03:07:35;10.92;87.59
71436;SHT31;59251;51.326;12.370;2023-03-14T03:10:01;10.93;87.78
71436;SHT31;59251;51.326;12.370;2023-03-14T03:12:26;10.92;87.49
71436;SHT31;59251;51.326;12.370;2023-03-14T03:14:51;10.96;87.21
71436;SHT31;59251;51.326;12.370;2023-03-14T03:17:17;11.03;87.00
71436;SHT31;59251;51.326;12.370;2023-03-14T03:19:42;10.97;86.96
71436;SHT31;59251;51.326;12.370;2023-03-14T03:22:08;11.00;86.40
71436;SHT31;59251;51.326;12.370;2023-03-14T03:24:33;11.13;85.45
71436;SHT31;59251;51.326;12.370;2023-03-14T03:26:58;11.21;85.24
71436;SHT31;59251;51.326;12.370;2023-03-14T03:29:24;11.24;85.02
71436;SHT31;59251;51.326;12.370;2023-03-14T03:31:49;11.17;84.86
71436;SHT31;59251;51.326;12.370;2023-03-14T03:34:15;11.23;84.19
71436;SHT31;59251;51.326;12.370;2023-03-14T03:36:41;11.28;84.15
71436;SHT31;59251;51.326;12.370;2023-03-14T03:39:06;11.18;84.37
71436;SHT31;59251;51.326;12.370;2023-03-14T03:41:32;11.27;83.50
71436;SHT31;59251;51.326;12.370;2023-03-14T03:43:57;11.31;83.28
71436;SHT31;59251;51.326;12.370;2023-03-14T03:46:23;11.18;83.64
71436;SHT31;59251;51.326;12.370;2023-03-14T03:48:59;11.35;82.85
71436;SHT31;59251;51.326;12.370;2023-03-14T03:51:25;11.18;83.13
71436;SHT31;59251;51.326;12.370;2023-03-14T03:53:50;11.20;83.11
71436;SHT31;59251;51.326;12.370;2023-03-14T03:56:16;11.27;82.86
71436;SHT31;59251;51.326;12.370;2023-03-14T03:58:41;11.24;82.91
71436;SHT31;59251;51.326;12.370;2023-03-14T04:01:08;11.14;83.10
71436;SHT31;59251;51.326;12.370;2023-03-14T04:03:33;11.16;82.93
71436;SHT31;59251;51.326;12.370;2023-03-14T04:06:10;11.14;83.08
71436;SHT31;59251;51.326;12.370;2023-03-14T04:08:36;11.16;83.33
71436;SHT31;59251;51.326;12.370;2023-03-14T04:11:03;11.09;83.54
71436;SHT31;59251;51.326;12.370;2023-03-14T04:13:28;11.01;83.75
71436;SHT31;59251;51.326;12.370;2023-03-14T04:15:55;10.95;84.02
71436;SHT31;59251;51.326;12.370;2023-03-14T04:18:21;10.97;83.71
71436;SHT31;59251;51.326;12.370;2023-03-14T04:20:54;10.92;84.27
71436;SHT31;59251;51.326;12.370;2023-03-14T04:23:20;10.82;84.42
71436;SHT31;59251;51.326;12.370;2023-03-14T04:25:45;10.82;85.05
71436;SHT31;59251;51.326;12.370;2023-03-14T04:28:10;10.88;84.52
71436;SHT31;59251;51.326;12.370;2023-03-14T04:30:36;10.97;84.35
71436;SHT31;59251;51.326;12.370;2023-03-14T04:33:01;10.88;84.86
71436;SHT31;59251;51.326;12.370;2023-03-14T04:35:27;10.84;84.80
71436;SHT31;59251;51.326;12.370;2023-03-14T04:37:52;10.77;85.47
71436;SHT31;59251;51.326;12.370;2023-03-14T04:40:18;10.77;85.44
71436;SHT31;59251;51.326;12.370;2023-03-14T04:42:43;10.59;85.90
71436;SHT31;59251;51.326;12.370;2023-03-14T04:45:09;10.55;86.13
71436;SHT31;59251;51.326;12.370;2023-03-14T04:47:35;10.44;86.53
71436;SHT31;59251;51.326;12.370;2023-03-14T04:50:00;10.48;86.43
71436;SHT31;59251;51.326;12.370;2023-03-14T04:52:26;10.44;86.47
71436;SHT31;59251;51.326;12.370;2023-03-14T04:54:51;10.69;85.89
71436;SHT31;59251;51.326;12.370;2023-03-14T04:57:17;10.51;86.10
71436;SHT31;59251;51.326;12.370;2023-03-14T04:59:42;10.61;85.72
71436;SHT31;59251;51.326;12.370;2023-03-14T05:02:08;10.65;85.65
71436;SHT31;59251;51.326;12.370;2023-03-14T05:04:33;10.56;85.54
71436;SHT31;59251;51.326;12.370;2023-03-14T05:06:59;10.62;85.39
71436;SHT31;59251;51.326;12.370;2023-03-14T05:09:25;10.70;85.05
71436;SHT31;59251;51.326;12.370;2023-03-14T05:11:50;10.69;84.90
71436;SHT31;59251;51.326;12.370;2023-03-14T05:14:16;10.76;84.36
71436;SHT31;59251;51.326;12.370;2023-03-14T05:16:41;10.69;84.70
71436;SHT31;59251;51.326;12.370;2023-03-14T05:19:06;10.69;84.87
71436;SHT31;59251;51.326;12.370;2023-03-14T05:21:32;10.58;85.33
71436;SHT31;59251;51.326;12.370;2023-03-14T05:23:57;10.46;85.46
71436;SHT31;59251;51.326;12.370;2023-03-14T05:26:23;10.66;84.95
71436;SHT31;59251;51.326;12.370;2023-03-14T05:28:48;10.69;84.56
71436;SHT31;59251;51.326;12.370;2023-03-14T05:31:14;10.63;84.67
71436;SHT31;59251;51.326;12.370;2023-03-14T05:33:40;10.69;84.37
71436;SHT31;59251;51.326;12.370;2023-03-14T05:36:05;10.70;84.61
71436;SHT31;59251;51.326;12.370;2023-03-14T05:38:31;10.63;84.75
71436;SHT31;59251;51.326;12.370;2023-03-14T05:40:56;10.72;84.30
71436;SHT31;59251;51.326;12.370;2023-03-14T05:43:22;10.75;84.05
71436;SHT31;59251;51.326;12.370;2023-03-14T05:45:47;10.70;84.33
71436;SHT31;59251;51.326;12.370;2023-03-14T05:48:12;10.80;84.03
71436;SHT31;59251;51.326;12.370;2023-03-14T05:50:38;10.73;84.05
71436;SHT31;59251;51.326;12.370;2023-03-14T05:53:03;10.79;84.07
71436;SHT31;59251;51.326;12.370;2023-03-14T05:55:28;10.82;83.50
71436;SHT31;59251;51.326;12.370;2023-03-14T05:57:54;10.80;83.84
71436;SHT31;59251;51.326;12.370;2023-03-14T06:00:20;10.82;83.53
71436;SHT31;59251;51.326;12.370;2023-03-14T06:02:46;10.92;83.15
71436;SHT31;59251;51.326;12.370;2023-03-14T06:05:12;10.95;83.03
71436;SHT31;59251;51.326;12.370;2023-03-14T06:07:37;11.06;82.87
71436;SHT31;59251;51.326;12.370;2023-03-14T06:10:03;11.11;82.61
71436;SHT31;59251;51.326;12.370;2023-03-14T06:12:29;11.16;82.46
71436;SHT31;59251;51.326;12.370;2023-03-14T06:14:54;11.09;82.74
71436;SHT31;59251;51.326;12.370;2023-03-14T06:17:20;11.18;82.31
71436;SHT31;59251;51.326;12.370;2023-03-14T06:19:45;11.24;82.31
71436;SHT31;59251;51.326;12.370;2023-03-14T06:22:10;11.28;82.11
71436;SHT31;59251;51.326;12.370;2023-03-14T06:24:36;11.23;82.48
71436;SHT31;59251;51.326;12.370;2023-03-14T06:27:01;11.28;82.29
71436;SHT31;59251;51.326;12.370;2023-03-14T06:29:28;11.26;82.01
71436;SHT31;59251;51.326;12.370;2023-03-14T06:31:54;11.24;82.31
71436;SHT31;59251;51.326;12.370;2023-03-14T06:34:19;11.09;82.98
71436;SHT31;59251;51.326;12.370;2023-03-14T06:36:44;11.27;81.93
71436;SHT31;59251;51.326;12.370;2023-03-14T06:39:10;11.26;82.08
71436;SHT31;59251;51.326;12.370;2023-03-14T06:41:35;11.18;82.57
71436;SHT31;59251;51.326;12.370;2023-03-14T06:44:00;11.13;82.78
71436;SHT31;59251;51.326;12.370;2023-03-14T06:46:26;11.17;82.27
71436;SHT31;59251;51.326;12.370;2023-03-14T06:48:51;11.26;82.23
71436;SHT31;59251;51.326;12.370;2023-03-14T06:51:17;11.10;82.53
71436;SHT31;59251;51.326;12.370;2023-03-14T06:53:42;11.17;82.31
71436;SHT31;59251;51.326;12.370;2023-03-14T06:56:08;11.23;81.78
71436;SHT31;59251;51.326;12.370;2023-03-14T06:58:33;11.16;82.20
71436;SHT31;59251;51.326;12.370;2023-03-14T07:00:59;11.06;82.70
71436;SHT31;59251;51.326;12.370;2023-03-14T07:03:24;11.07;82.18
71436;SHT31;59251;51.326;12.370;2023-03-14T07:05:50;11.03;82.63
71436;SHT31;59251;51.326;12.370;2023-03-14T07:08:15;10.95;82.85
71436;SHT31;59251;51.326;12.370;2023-03-14T07:10:40;10.99;82.57
71436;SHT31;59251;51.326;12.370;2023-03-14T07:13:06;11.18;82.05
71436;SHT31;59251;51.326;12.370;2023-03-14T07:15:31;11.10;82.09
71436;SHT31;59251;51.326;12.370;2023-03-14T07:17:56;11.35;81.13
71436;SHT31;59251;51.326;12.370;2023-03-14T07:20:22;11.42;80.71
71436;SHT31;59251;51.326;12.370;2023-03-14T07:22:48;11.37;80.77
71436;SHT31;59251;51.326;12.370;2023-03-14T07:25:14;11.45;80.39
71436;SHT31;59251;51.326;12.370;2023-03-14T07:27:40;11.37;80.37
71436;SHT31;59251;51.326;12.370;2023-03-14T07:30:05;11.50;79.98
71436;SHT31;59251;51.326;12.370;2023-03-14T07:32:31;11.65;79.52
71436;SHT31;59251;51.326;12.370;2023-03-14T07:34:57;11.65;79.60
71436;SHT31;59251;51.326;12.370;2023-03-14T07:37:22;11.69;79.66
71436;SHT31;59251;51.326;12.370;2023-03-14T07:39:47;11.64;79.46
71436;SHT31;59251;51.326;12.370;2023-03-14T07:42:13;11.82;79.01
71436;SHT31;59251;51.326;12.370;2023-03-14T07:44:38;11.90;79.32
71436;SHT31;59251;51.326;12.370;2023-03-14T07:47:03;11.89;78.77
71436;SHT31;59251;51.326;12.370;2023-03-14T07:49:29;11.86;78.83
71436;SHT31;59251;51.326;12.370;2023-03-14T07:51:54;11.95;78.58
71436;SHT31;59251;51.326;12.370;2023-03-14T07:54:20;12.02;78.28
71436;SHT31;59251;51.326;12.370;2023-03-14T07:56:45;11.93;78.71
71436;SHT31;59251;51.326;12.370;2023-03-14T07:59:10;11.79;79.04
71436;SHT31;59251;51.326;12.370;2023-03-14T08:01:37;11.89;78.73
71436;SHT31;59251;51.326;12.370;2023-03-14T08:04:02;12.10;77.95
71436;SHT31;59251;51.326;12.370;2023-03-14T08:06:27;12.00;78.34
71436;SHT31;59251;51.326;12.370;2023-03-14T08:08:53;12.05;78.20
71436;SHT31;59251;51.326;12.370;2023-03-14T08:11:18;12.02;78.09
71436;SHT31;59251;51.326;12.370;2023-03-14T08:13:44;12.12;77.94
71436;SHT31;59251;51.326;12.370;2023-03-14T08:16:18;12.12;77.62
71436;SHT31;59251;51.326;12.370;2023-03-14T08:18:44;12.06;77.93
71436;SHT31;59251;51.326;12.370;2023-03-14T08:21:10;12.36;77.32
71436;SHT31;59251;51.326;12.370;2023-03-14T08:23:36;12.45;77.07
71436;SHT31;59251;51.326;12.370;2023-03-14T08:26:01;12.47;77.15
71436;SHT31;59251;51.326;12.370;2023-03-14T08:28:27;12.75;75.99
71436;SHT31;59251;51.326;12.370;2023-03-14T08:30:56;12.87;75.45
71436;SHT31;59251;51.326;12.370;2023-03-14T08:33:22;12.78;76.11
71436;SHT31;59251;51.326;12.370;2023-03-14T08:35:47;12.93;75.69
71436;SHT31;59251;51.326;12.370;2023-03-14T08:38:12;12.93;75.71
71436;SHT31;59251;51.326;12.370;2023-03-14T08:40:38;13.22;75.03
71436;SHT31;59251;51.326;12.370;2023-03-14T08:43:03;13.33;74.01
71436;SHT31;59251;51.326;12.370;2023-03-14T08:45:29;13.13;74.82
71436;SHT31;59251;51.326;12.370;2023-03-14T08:47:54;13.15;74.92
71436;SHT31;59251;51.326;12.370;2023-03-14T08:50:19;13.37;74.37
71436;SHT31;59251;51.326;12.370;2023-03-14T08:52:45;13.63;73.68
71436;SHT31;59251;51.326;12.370;2023-03-14T08:55:10;13.47;73.73
71436;SHT31;59251;51.326;12.370;2023-03-14T08:57:36;13.43;74.10
71436;SHT31;59251;51.326;12.370;2023-03-14T09:00:03;13.54;73.05
71436;SHT31;59251;51.326;12.370;2023-03-14T09:02:31;13.60;73.82
71436;SHT31;59251;51.326;12.370;2023-03-14T09:04:56;13.61;73.37
71436;SHT31;59251;51.326;12.370;2023-03-14T09:07:21;13.20;74.56
71436;SHT31;59251;51.326;12.370;2023-03-14T09:09:47;13.57;73.31
71436;SHT31;59251;51.326;12.370;2023-03-14T09:12:13;13.46;73.14
71436;SHT31;59251;51.326;12.370;2023-03-14T09:14:38;13.61;72.69
71436;SHT31;59251;51.326;12.370;2023-03-14T09:17:04;13.32;73.21
71436;SHT31;59251;51.326;12.370;2023-03-14T09:19:29;13.64;72.89
71436;SHT31;59251;51.326;12.370;2023-03-14T09:21:55;13.71;72.96
71436;SHT31;59251;51.326;12.370;2023-03-14T09:24:20;13.78;72.80
71436;SHT31;59251;51.326;12.370;2023-03-14T09:26:46;13.54;73.34
71436;SHT31;59251;51.326;12.370;2023-03-14T09:29:12;13.66;73.11
71436;SHT31;59251;51.326;12.370;2023-03-14T09:31:37;13.42;74.15
71436;SHT31;59251;51.326;12.370;2023-03-14T09:34:02;13.61;73.83
71436;SHT31;59251;51.326;12.370;2023-03-14T09:36:28;13.58;73.64
71436;SHT31;59251;51.326;12.370;2023-03-14T09:38:54;13.43;73.58
71436;SHT31;59251;51.326;12.370;2023-03-14T09:41:29;13.53;73.74
71436;SHT31;59251;51.326;12.370;2023-03-14T09:44:25;13.79;72.77
71436;SHT31;59251;51.326;12.370;2023-03-14T09:46:53;13.61;72.89
71436;SHT31;59251;51.326;12.370;2023-03-14T09:49:30;14.04;72.15
71436;SHT31;59251;51.326;12.370;2023-03-14T09:51:58;13.82;72.47
71436;SHT31;59251;51.326;12.370;2023-03-14T09:56:50;13.85;72.28
71436;SHT31;59251;51.326;12.370;2023-03-14T09:59:16;13.49;72.99
71436;SHT31;59251;51.326;12.370;2023-03-14T10:01:42;13.56;73.21
71436;SHT31;59251;51.326;12.370;2023-03-14T10:04:12;13.67;72.71
71436;SHT31;59251;51.326;12.370;2023-03-14T10:06:39;13.85;71.58
71436;SHT31;59251;51.326;12.370;2023-03-14T10:09:05;13.82;71.66
71436;SHT31;59251;51.326;12.370;2023-03-14T10:11:31;13.77;71.97
71436;SHT31;59251;51.326;12.370;2023-03-14T10:14:10;13.66;72.86
71436;SHT31;59251;51.326;12.370;2023-03-14T10:16:43;13.67;72.20
71436;SHT31;59251;51.326;12.370;2023-03-14T10:19:14;13.51;72.99
71436;SHT31;59251;51.326;12.370;2023-03-14T10:21:44;13.60;72.64
71436;SHT31;59251;51.326;12.370;2023-03-14T10:24:26;13.54;72.43
71436;SHT31;59251;51.326;12.370;2023-03-14T10:26:54;13.71;71.71
71436;SHT31;59251;51.326;12.370;2023-03-14T10:29:20;13.68;71.84
71436;SHT31;59251;51.326;12.370;2023-03-14T10:31:57;13.58;71.81
71436;SHT31;59251;51.326;12.370;2023-03-14T10:34:35;14.01;71.22
71436;SHT31;59251;51.326;12.370;2023-03-14T10:37:21;14.16;70.77
71436;SHT31;59251;51.326;12.370;2023-03-14T10:39:51;13.92;71.08
71436;SHT31;59251;51.326;12.370;2023-03-14T10:42:34;14.29;70.44
71436;SHT31;59251;51.326;12.370;2023-03-14T10:45:06;14.35;69.97
71436;SHT31;59251;51.326;12.370;2023-03-14T10:47:34;14.28;70.30
71436;SHT31;59251;51.326;12.370;2023-03-14T10:50:28;14.12;71.08
71436;SHT31;59251;51.326;12.370;2023-03-14T10:52:55;14.28;70.24
71436;SHT31;59251;51.326;12.370;2023-03-14T10:55:23;14.42;70.08
71436;SHT31;59251;51.326;12.370;2023-03-14T10:57:49;14.36;69.89
71436;SHT31;59251;51.326;12.370;2023-03-14T11:00:17;14.09;70.33
71436;SHT31;59251;51.326;12.370;2023-03-14T11:02:53;13.87;70.99
71436;SHT31;59251;51.326;12.370;2023-03-14T11:08:01;14.00;71.07
71436;SHT31;59251;51.326;12.370;2023-03-14T11:10:35;13.67;71.63
71436;SHT31;59251;51.326;12.370;2023-03-14T11:13:22;13.74;73.24
71436;SHT31;59251;51.326;12.370;2023-03-14T11:16:13;13.47;74.48
71436;SHT31;59251;51.326;12.370;2023-03-14T11:27:15;13.97;73.31
71436;SHT31;59251;51.326;12.370;2023-03-14T11:30:12;13.78;73.84
71436;SHT31;59251;51.326;12.370;2023-03-14T11:32:50;14.19;72.54
71436;SHT31;59251;51.326;12.370;2023-03-14T11:35:30;14.18;73.01
71436;SHT31;59251;51.326;12.370;2023-03-14T11:40:39;14.62;71.89
71436;SHT31;59251;51.326;12.370;2023-03-14T11:45:38;14.87;71.63
71436;SHT31;59251;51.326;12.370;2023-03-14T11:50:57;15.22;70.25
71436;SHT31;59251;51.326;12.370;2023-03-14T11:56:19;15.24;69.99
71436;SHT31;59251;51.326;12.370;2023-03-14T11:59:01;15.31;70.26
71436;SHT31;59251;51.326;12.370;2023-03-14T12:01:36;15.38;69.88
71436;SHT31;59251;51.326;12.370;2023-03-14T12:04:18;14.94;71.02
71436;SHT31;59251;51.326;12.370;2023-03-14T12:06:49;15.12;70.12
71436;SHT31;59251;51.326;12.370;2023-03-14T12:09:16;14.87;70.81
71436;SHT31;59251;51.326;12.370;2023-03-14T12:11:52;15.01;70.58
71436;SHT31;59251;51.326;12.370;2023-03-14T12:14:30;14.72;70.97
71436;SHT31;59251;51.326;12.370;2023-03-14T12:17:04;14.70;70.69
71436;SHT31;59251;51.326;12.370;2023-03-14T12:19:35;14.33;71.47
71436;SHT31;59251;51.326;12.370;2023-03-14T12:22:24;14.53;71.43
71436;SHT31;59251;51.326;12.370;2023-03-14T12:25:20;14.19;72.07
71436;SHT31;59251;51.326;12.370;2023-03-14T12:27:48;14.04;73.64
71436;SHT31;59251;51.326;12.370;2023-03-14T12:30:22;13.46;77.69
71436;SHT31;59251;51.326;12.370;2023-03-14T12:35:42;13.19;80.61
71436;SHT31;59251;51.326;12.370;2023-03-14T12:43:54;14.36;74.16
71436;SHT31;59251;51.326;12.370;2023-03-14T12:46:24;15.02;72.48
71436;SHT31;59251;51.326;12.370;2023-03-14T12:51:42;14.47;72.80
71436;SHT31;59251;51.326;12.370;2023-03-14T12:57:25;14.16;72.46
71436;SHT31;59251;51.326;12.370;2023-03-14T12:59:56;14.26;72.70
71436;SHT31;59251;51.326;12.370;2023-03-14T13:02:28;14.15;73.63
71436;SHT31;59251;51.326;12.370;2023-03-14T13:07:30;14.22;73.19
71436;SHT31;59251;51.326;12.370;2023-03-14T13:12:29;14.39;71.91
71436;SHT31;59251;51.326;12.370;2023-03-14T13:14:59;14.42;71.20
71436;SHT31;59251;51.326;12.370;2023-03-14T13:17:33;14.37;71.63
71436;SHT31;59251;51.326;12.370;2023-03-14T13:22:56;16.00;66.78
71436;SHT31;59251;51.326;12.370;2023-03-14T13:25:21;15.08;69.09
71436;SHT31;59251;51.326;12.370;2023-03-14T13:27:48;14.63;70.20
71436;SHT31;59251;51.326;12.370;2023-03-14T13:30:22;15.00;69.66
71436;SHT31;59251;51.326;12.370;2023-03-14T13:32:49;14.85;69.74
71436;SHT31;59251;51.326;12.370;2023-03-14T13:37:44;15.49;68.04
71436;SHT31;59251;51.326;12.370;2023-03-14T13:40:20;15.87;68.35
71436;SHT31;59251;51.326;12.370;2023-03-14T13:42:45;16.55;66.26
71436;SHT31;59251;51.326;12.370;2023-03-14T13:45:13;17.21;64.50
71436;SHT31;59251;51.326;12.370;2023-03-14T13:47:39;16.66;65.21
71436;SHT31;59251;51.326;12.370;2023-03-14T13:50:11;16.03;66.33
71436;SHT31;59251;51.326;12.370;2023-03-14T13:52:37;18.44;59.87
71436;SHT31;59251;51.326;12.370;2023-03-14T13:55:05;18.83;58.72
71436;SHT31;59251;51.326;12.370;2023-03-14T13:57:52;17.79;60.05
71436;SHT31;59251;51.326;12.370;2023-03-14T14:00:25;17.19;61.41
71436;SHT31;59251;51.326;12.370;2023-03-14T14:02:56;17.61;61.38
71436;SHT31;59251;51.326;12.370;2023-03-14T14:05:26;17.04;62.30
71436;SHT31;59251;51.326;12.370;2023-03-14T14:07:53;17.86;61.47
71436;SHT31;59251;51.326;12.370;2023-03-14T14:10:19;19.03;57.44
71436;SHT31;59251;51.326;12.370;2023-03-14T14:12:52;17.88;59.57
71436;SHT31;59251;51.326;12.370;2023-03-14T14:15:22;16.62;62.36
71436;SHT31;59251;51.326;12.370;2023-03-14T14:17:53;16.07;63.46
71436;SHT31;59251;51.326;12.370;2023-03-14T14:22:52;15.43;65.34
71436;SHT31;59251;51.326;12.370;2023-03-14T14:25:17;15.67;65.39
71436;SHT31;59251;51.326;12.370;2023-03-14T14:27:48;15.71;65.12
71436;SHT31;59251;51.326;12.370;2023-03-14T14:32:43;14.95;66.97
71436;SHT31;59251;51.326;12.370;2023-03-14T14:35:17;15.32;67.17
71436;SHT31;59251;51.326;12.370;2023-03-14T14:37:47;15.07;67.47
71436;SHT31;59251;51.326;12.370;2023-03-14T14:40:21;14.97;68.15
71436;SHT31;59251;51.326;12.370;2023-03-14T14:42:47;14.95;68.40
71436;SHT31;59251;51.326;12.370;2023-03-14T14:45:18;14.67;68.65
71436;SHT31;59251;51.326;12.370;2023-03-14T14:50:27;15.01;68.77
71436;SHT31;59251;51.326;12.370;2023-03-14T14:53:00;14.81;69.37
71436;SHT31;59251;51.326;12.370;2023-03-14T14:55:32;14.56;71.57
71436;SHT31;59251;51.326;12.370;2023-03-14T14:58:12;13.56;76.72
71436;SHT31;59251;51.326;12.370;2023-03-14T15:00:40;13.32;82.58
71436;SHT31;59251;51.326;12.370;2023-03-14T15:03:12;12.61;83.84
71436;SHT31;59251;51.326;12.370;2023-03-14T15:05:39;12.48;87.21
71436;SHT31;59251;51.326;12.370;2023-03-14T15:08:10;12.37;86.76
71436;SHT31;59251;51.326;12.370;2023-03-14T15:10:35;12.03;88.06
71436;SHT31;59251;51.326;12.370;2023-03-14T15:13:01;12.14;88.78
71436;SHT31;59251;51.326;12.370;2023-03-14T15:15:26;12.00;89.77
71436;SHT31;59251;51.326;12.370;2023-03-14T15:17:51;10.56;90.06
71436;SHT31;59251;51.326;12.370;2023-03-14T15:20:17;8.54;96.46
71436;SHT31;59251;51.326;12.370;2023-03-14T15:22:44;7.20;99.99
71436;SHT31;59251;51.326;12.370;2023-03-14T15:25:10;6.61;99.99
71436;SHT31;59251;51.326;12.370;2023-03-14T15:27:36;6.53;99.99
71436;SHT31;59251;51.326;12.370;2023-03-14T15:30:12;6.46;99.99
71436;SHT31;59251;51.326;12.370;2023-03-14T15:32:38;6.19;99.99
71436;SHT31;59251;51.326;12.370;2023-03-14T15:35:03;6.26;99.99
71436;SHT31;59251;51.326;12.370;2023-03-14T15:37:29;6.13;99.99
71436;SHT31;59251;51.326;12.370;2023-03-14T15:39:56;6.16;99.99
71436;SHT31;59251;51.326;12.370;2023-03-14T15:42:23;6.12;98.93
71436;SHT31;59251;51.326;12.370;2023-03-14T15:44:48;5.91;98.35
71436;SHT31;59251;51.326;12.370;2023-03-14T15:47:14;5.97;99.17
71436;SHT31;59251;51.326;12.370;2023-03-14T15:49:39;5.87;98.16
71436;SHT31;59251;51.326;12.370;2023-03-14T15:52:05;5.81;99.30
71436;SHT31;59251;51.326;12.370;2023-03-14T15:54:32;5.57;97.81
71436;SHT31;59251;51.326;12.370;2023-03-14T15:56:58;5.39;97.90
71436;SHT31;59251;51.326;12.370;2023-03-14T15:59:24;5.26;98.03
71436;SHT31;59251;51.326;12.370;2023-03-14T16:01:49;5.26;97.63
71436;SHT31;59251;51.326;12.370;2023-03-14T16:04:15;5.20;97.22
71436;SHT31;59251;51.326;12.370;2023-03-14T16:06:40;5.16;97.56
71436;SHT31;59251;51.326;12.370;2023-03-14T16:09:06;5.08;98.05
71436;SHT31;59251;51.326;12.370;2023-03-14T16:11:32;4.99;97.52
71436;SHT31;59251;51.326;12.370;2023-03-14T16:13:58;4.71;97.85
71436;SHT31;59251;51.326;12.370;2023-03-14T16:16:23;4.64;98.28
71436;SHT31;59251;51.326;12.370;2023-03-14T16:18:48;4.60;97.25
71436;SHT31;59251;51.326;12.370;2023-03-14T16:21:16;4.57;98.22
71436;SHT31;59251;51.326;12.370;2023-03-14T16:23:42;4.57;97.90
71436;SHT31;59251;51.326;12.370;2023-03-14T16:26:10;4.47;97.87
71436;SHT31;59251;51.326;12.370;2023-03-14T16:28:36;4.34;97.76